sensor_id;sensor_type;location;lat;lon;timestamp;P1;durP1;ratioP1;P2;durP2;ratioP2
769;SDS011;368;48.698;9.116;2023-10-09T00:00:56;12.93;;;4.83;;
769;SDS011;368;48.698;9.116;2023-10-09T00:03:29;16.70;;;5.57;;
769;SDS011;368;48.698;9.116;2023-10-09T00:05:56;11.90;;;5.27;;
769;SDS011;368;48.698;9.116;2023-10-09T00:08:25;14.77;;;6.70;;
769;SDS011;368;48.698;9.116;2023-10-09T00:10:55;12.50;;;4.90;;
769;SDS011;368;48.698;9.116;2023-10-09T00:13:24;11.10;;;5.10;;
769;SDS011;368;48.698;9.116;2023-10-09T00:15:55;11.60;;;5.90;;
769;SDS011;368;48.698;9.116;2023-10-09T00:18:26;10.73;;;5.07;;
769;SDS011;368;48.698;9.116;2023-10-09T00:20:55;16.10;;;6.10;;
769;SDS011;368;48.698;9.116;2023-10-09T00:23:27;11.73;;;5.20;;
769;SDS011;368;48.698;9.116;2023-10-09T00:25:56;15.47;;;4.83;;
769;SDS011;368;48.698;9.116;2023-10-09T00:28:36;19.87;;;4.83;;
769;SDS011;368;48.698;9.116;2023-10-09T00:31:06;16.37;;;5.57;;
769;SDS011;368;48.698;9.116;2023-10-09T00:33:39;19.27;;;7.20;;
769;SDS011;368;48.698;9.116;2023-10-09T00:36:06;14.93;;;6.30;;
769;SDS011;368;48.698;9.116;2023-10-09T00:38:36;11.67;;;6.10;;
769;SDS011;368;48.698;9.116;2023-10-09T00:41:09;14.23;;;5.20;;
769;SDS011;368;48.698;9.116;2023-10-09T00:43:37;14.97;;;5.63;;
769;SDS011;368;48.698;9.116;2023-10-09T00:46:08;12.40;;;6.30;;
769;SDS011;368;48.698;9.116;2023-10-09T00:48:49;14.70;;;6.43;;
769;SDS011;368;48.698;9.116;2023-10-09T00:51:18;16.73;;;4.97;;
769;SDS011;368;48.698;9.116;2023-10-09T00:53:51;13.77;;;4.93;;
769;SDS011;368;48.698;9.116;2023-10-09T00:56:21;14.33;;;6.10;;
769;SDS011;368;48.698;9.116;2023-10-09T00:59:03;17.10;;;5.00;;
769;SDS011;368;48.698;9.116;2023-10-09T01:01:33;15.67;;;4.27;;
769;SDS011;368;48.698;9.116;2023-10-09T01:04:02;18.13;;;5.53;;
769;SDS011;368;48.698;9.116;2023-10-09T01:06:41;14.43;;;5.60;;
769;SDS011;368;48.698;9.116;2023-10-09T01:09:14;14.50;;;5.27;;
769;SDS011;368;48.698;9.116;2023-10-09T01:11:44;15.47;;;5.13;;
769;SDS011;368;48.698;9.116;2023-10-09T01:14:14;10.90;;;4.30;;
769;SDS011;368;48.698;9.116;2023-10-09T01:16:41;16.07;;;5.00;;
769;SDS011;368;48.698;9.116;2023-10-09T01:19:09;14.57;;;4.27;;
769;SDS011;368;48.698;9.116;2023-10-09T01:21:45;13.97;;;5.00;;
769;SDS011;368;48.698;9.116;2023-10-09T01:24:14;14.83;;;5.80;;
769;SDS011;368;48.698;9.116;2023-10-09T01:26:41;13.07;;;5.93;;
769;SDS011;368;48.698;9.116;2023-10-09T01:29:12;15.10;;;5.20;;
769;SDS011;368;48.698;9.116;2023-10-09T01:31:42;15.73;;;4.70;;
769;SDS011;368;48.698;9.116;2023-10-09T01:34:20;15.10;;;5.10;;
769;SDS011;368;48.698;9.116;2023-10-09T01:36:49;17.50;;;6.50;;
769;SDS011;368;48.698;9.116;2023-10-09T01:39:21;16.87;;;4.80;;
769;SDS011;368;48.698;9.116;2023-10-09T01:41:51;12.70;;;4.40;;
769;SDS011;368;48.698;9.116;2023-10-09T01:44:23;18.07;;;7.07;;
769;SDS011;368;48.698;9.116;2023-10-09T01:46:52;10.50;;;4.20;;
769;SDS011;368;48.698;9.116;2023-10-09T01:49:22;11.83;;;4.70;;
769;SDS011;368;48.698;9.116;2023-10-09T01:51:54;17.80;;;4.53;;
769;SDS011;368;48.698;9.116;2023-10-09T01:54:26;10.53;;;4.30;;
769;SDS011;368;48.698;9.116;2023-10-09T01:57:05;14.83;;;5.20;;
769;SDS011;368;48.698;9.116;2023-10-09T01:59:36;14.17;;;4.80;;
769;SDS011;368;48.698;9.116;2023-10-09T02:02:08;8.83;;;4.30;;
769;SDS011;368;48.698;9.116;2023-10-09T02:04:46;12.90;;;5.17;;
769;SDS011;368;48.698;9.116;2023-10-09T02:07:13;11.20;;;4.60;;
769;SDS011;368;48.698;9.116;2023-10-09T02:09:42;10.77;;;4.93;;
769;SDS011;368;48.698;9.116;2023-10-09T02:12:12;13.50;;;5.53;;
769;SDS011;368;48.698;9.116;2023-10-09T02:14:39;16.03;;;6.27;;
769;SDS011;368;48.698;9.116;2023-10-09T02:17:07;7.63;;;4.30;;
769;SDS011;368;48.698;9.116;2023-10-09T02:19:34;10.37;;;4.17;;
769;SDS011;368;48.698;9.116;2023-10-09T02:22:03;12.07;;;5.40;;
769;SDS011;368;48.698;9.116;2023-10-09T02:24:38;12.30;;;4.23;;
769;SDS011;368;48.698;9.116;2023-10-09T02:27:17;8.80;;;4.10;;
769;SDS011;368;48.698;9.116;2023-10-09T02:30:14;14.47;;;4.70;;
769;SDS011;368;48.698;9.116;2023-10-09T02:32:52;8.80;;;4.40;;
769;SDS011;368;48.698;9.116;2023-10-09T02:35:24;8.73;;;5.10;;
769;SDS011;368;48.698;9.116;2023-10-09T02:38:04;13.87;;;4.80;;
769;SDS011;368;48.698;9.116;2023-10-09T02:40:39;15.30;;;4.77;;
769;SDS011;368;48.698;9.116;2023-10-09T02:43:25;15.03;;;4.67;;
769;SDS011;368;48.698;9.116;2023-10-09T02:45:54;9.67;;;4.40;;
769;SDS011;368;48.698;9.116;2023-10-09T02:48:21;10.70;;;5.10;;
769;SDS011;368;48.698;9.116;2023-10-09T02:50:51;14.17;;;5.40;;
769;SDS011;368;48.698;9.116;2023-10-09T02:53:19;16.83;;;4.53;;
769;SDS011;368;48.698;9.116;2023-10-09T02:55:54;10.50;;;4.07;;
769;SDS011;368;48.698;9.116;2023-10-09T02:58:37;7.77;;;4.20;;
769;SDS011;368;48.698;9.116;2023-10-09T03:01:10;10.63;;;5.10;;
769;SDS011;368;48.698;9.116;2023-10-09T03:03:38;10.30;;;4.80;;
769;SDS011;368;48.698;9.116;2023-10-09T03:06:06;10.40;;;4.20;;
769;SDS011;368;48.698;9.116;2023-10-09T03:08:36;14.23;;;4.80;;
769;SDS011;368;48.698;9.116;2023-10-09T03:11:03;10.17;;;4.20;;
769;SDS011;368;48.698;9.116;2023-10-09T03:13:31;8.30;;;4.20;;
769;SDS011;368;48.698;9.116;2023-10-09T03:15:58;14.83;;;4.90;;
769;SDS011;368;48.698;9.116;2023-10-09T03:18:28;15.23;;;4.27;;
769;SDS011;368;48.698;9.116;2023-10-09T03:20:56;9.90;;;4.80;;
769;SDS011;368;48.698;9.116;2023-10-09T03:23:24;13.43;;;6.07;;
769;SDS011;368;48.698;9.116;2023-10-09T03:25:51;9.43;;;4.67;;
769;SDS011;368;48.698;9.116;2023-10-09T03:28:17;12.63;;;4.00;;
769;SDS011;368;48.698;9.116;2023-10-09T03:30:44;8.53;;;4.33;;
769;SDS011;368;48.698;9.116;2023-10-09T03:33:13;9.13;;;4.30;;
769;SDS011;368;48.698;9.116;2023-10-09T03:35:42;11.73;;;5.00;;
769;SDS011;368;48.698;9.116;2023-10-09T03:38:09;9.27;;;4.53;;
769;SDS011;368;48.698;9.116;2023-10-09T03:40:42;8.50;;;3.93;;
769;SDS011;368;48.698;9.116;2023-10-09T03:43:09;11.03;;;4.00;;
769;SDS011;368;48.698;9.116;2023-10-09T03:45:36;11.20;;;4.30;;
769;SDS011;368;48.698;9.116;2023-10-09T03:48:10;9.13;;;4.03;;
769;SDS011;368;48.698;9.116;2023-10-09T03:50:47;8.47;;;4.47;;
769;SDS011;368;48.698;9.116;2023-10-09T03:53:17;11.53;;;4.17;;
769;SDS011;368;48.698;9.116;2023-10-09T03:55:44;11.43;;;5.20;;
769;SDS011;368;48.698;9.116;2023-10-09T03:58:10;13.63;;;5.00;;
769;SDS011;368;48.698;9.116;2023-10-09T04:00:44;9.93;;;4.40;;
769;SDS011;368;48.698;9.116;2023-10-09T04:03:11;11.47;;;4.40;;
769;SDS011;368;48.698;9.116;2023-10-09T04:05:39;11.37;;;4.47;;
769;SDS011;368;48.698;9.116;2023-10-09T04:08:09;11.77;;;4.90;;
769;SDS011;368;48.698;9.116;2023-10-09T04:10:54;8.37;;;4.50;;
769;SDS011;368;48.698;9.116;2023-10-09T04:13:26;13.07;;;5.33;;
769;SDS011;368;48.698;9.116;2023-10-09T04:15:59;9.63;;;4.83;;
769;SDS011;368;48.698;9.116;2023-10-09T04:18:34;11.53;;;4.80;;
769;SDS011;368;48.698;9.116;2023-10-09T04:21:03;11.73;;;4.93;;
769;SDS011;368;48.698;9.116;2023-10-09T04:23:45;9.27;;;4.97;;
769;SDS011;368;48.698;9.116;2023-10-09T04:26:29;6.47;;;4.50;;
769;SDS011;368;48.698;9.116;2023-10-09T04:28:59;10.20;;;4.27;;
769;SDS011;368;48.698;9.116;2023-10-09T04:31:27;7.53;;;4.47;;
769;SDS011;368;48.698;9.116;2023-10-09T04:33:57;9.17;;;4.77;;
769;SDS011;368;48.698;9.116;2023-10-09T04:36:38;8.80;;;4.93;;
769;SDS011;368;48.698;9.116;2023-10-09T04:39:13;15.73;;;4.80;;
769;SDS011;368;48.698;9.116;2023-10-09T04:42:00;11.47;;;4.67;;
769;SDS011;368;48.698;9.116;2023-10-09T04:45:01;13.30;;;5.10;;
769;SDS011;368;48.698;9.116;2023-10-09T04:48:01;11.13;;;5.70;;
769;SDS011;368;48.698;9.116;2023-10-09T04:50:32;7.93;;;4.30;;
769;SDS011;368;48.698;9.116;2023-10-09T04:53:11;12.47;;;5.67;;
769;SDS011;368;48.698;9.116;2023-10-09T04:55:51;15.87;;;4.67;;
769;SDS011;368;48.698;9.116;2023-10-09T04:58:23;12.20;;;4.30;;
769;SDS011;368;48.698;9.116;2023-10-09T05:00:51;10.53;;;5.10;;
769;SDS011;368;48.698;9.116;2023-10-09T05:03:38;11.40;;;4.00;;
769;SDS011;368;48.698;9.116;2023-10-09T05:06:21;7.90;;;5.07;;
769;SDS011;368;48.698;9.116;2023-10-09T05:09:19;15.10;;;6.40;;
769;SDS011;368;48.698;9.116;2023-10-09T05:11:47;18.13;;;5.00;;
769;SDS011;368;48.698;9.116;2023-10-09T05:14:34;12.67;;;4.43;;
769;SDS011;368;48.698;9.116;2023-10-09T05:17:04;10.40;;;4.50;;
769;SDS011;368;48.698;9.116;2023-10-09T05:19:40;13.63;;;6.07;;
769;SDS011;368;48.698;9.116;2023-10-09T05:22:08;11.37;;;4.30;;
769;SDS011;368;48.698;9.116;2023-10-09T05:24:42;15.53;;;4.77;;
769;SDS011;368;48.698;9.116;2023-10-09T05:27:11;15.50;;;5.27;;
769;SDS011;368;48.698;9.116;2023-10-09T05:29:44;11.77;;;5.30;;
769;SDS011;368;48.698;9.116;2023-10-09T05:32:37;10.63;;;4.10;;
769;SDS011;368;48.698;9.116;2023-10-09T05:35:13;8.40;;;4.97;;
769;SDS011;368;48.698;9.116;2023-10-09T05:37:40;8.73;;;5.10;;
769;SDS011;368;48.698;9.116;2023-10-09T05:40:12;14.10;;;4.47;;
769;SDS011;368;48.698;9.116;2023-10-09T05:42:49;11.70;;;4.47;;
769;SDS011;368;48.698;9.116;2023-10-09T05:45:28;11.87;;;4.27;;
769;SDS011;368;48.698;9.116;2023-10-09T05:48:12;9.27;;;3.93;;
769;SDS011;368;48.698;9.116;2023-10-09T05:50:56;13.93;;;4.50;;
769;SDS011;368;48.698;9.116;2023-10-09T05:54:05;9.00;;;3.80;;
769;SDS011;368;48.698;9.116;2023-10-09T05:56:48;9.70;;;4.07;;
769;SDS011;368;48.698;9.116;2023-10-09T05:59:48;11.33;;;4.60;;
769;SDS011;368;48.698;9.116;2023-10-09T06:02:32;14.53;;;4.83;;
769;SDS011;368;48.698;9.116;2023-10-09T06:05:24;11.83;;;4.33;;
769;SDS011;368;48.698;9.116;2023-10-09T06:08:27;15.07;;;4.73;;
769;SDS011;368;48.698;9.116;2023-10-09T06:11:24;10.80;;;4.23;;
769;SDS011;368;48.698;9.116;2023-10-09T06:14:06;9.00;;;4.90;;
769;SDS011;368;48.698;9.116;2023-10-09T06:16:42;9.43;;;4.03;;
769;SDS011;368;48.698;9.116;2023-10-09T06:19:08;15.53;;;4.37;;
769;SDS011;368;48.698;9.116;2023-10-09T06:21:38;11.50;;;4.50;;
769;SDS011;368;48.698;9.116;2023-10-09T06:24:05;15.00;;;4.60;;
769;SDS011;368;48.698;9.116;2023-10-09T06:26:40;10.77;;;3.60;;
769;SDS011;368;48.698;9.116;2023-10-09T06:29:37;9.67;;;5.43;;
769;SDS011;368;48.698;9.116;2023-10-09T06:32:43;10.67;;;4.20;;
769;SDS011;368;48.698;9.116;2023-10-09T06:35:23;13.87;;;4.20;;
769;SDS011;368;48.698;9.116;2023-10-09T06:38:01;9.10;;;4.30;;
769;SDS011;368;48.698;9.116;2023-10-09T06:40:51;9.80;;;4.77;;
769;SDS011;368;48.698;9.116;2023-10-09T06:43:36;14.37;;;4.73;;
769;SDS011;368;48.698;9.116;2023-10-09T06:46:13;14.93;;;5.57;;
769;SDS011;368;48.698;9.116;2023-10-09T06:48:59;8.20;;;3.90;;
769;SDS011;368;48.698;9.116;2023-10-09T06:51:40;11.07;;;4.40;;
769;SDS011;368;48.698;9.116;2023-10-09T06:54:09;14.20;;;5.37;;
769;SDS011;368;48.698;9.116;2023-10-09T06:56:42;10.90;;;4.13;;
769;SDS011;368;48.698;9.116;2023-10-09T06:59:26;15.20;;;5.03;;
769;SDS011;368;48.698;9.116;2023-10-09T07:02:06;14.60;;;4.90;;
769;SDS011;368;48.698;9.116;2023-10-09T07:04:53;12.07;;;4.63;;
769;SDS011;368;48.698;9.116;2023-10-09T07:07:36;7.37;;;3.80;;
769;SDS011;368;48.698;9.116;2023-10-09T07:10:15;14.37;;;4.93;;
769;SDS011;368;48.698;9.116;2023-10-09T07:13:05;10.83;;;3.70;;
769;SDS011;368;48.698;9.116;2023-10-09T07:15:30;10.93;;;4.30;;
769;SDS011;368;48.698;9.116;2023-10-09T07:18:18;8.60;;;3.90;;
769;SDS011;368;48.698;9.116;2023-10-09T07:20:50;8.43;;;3.70;;
769;SDS011;368;48.698;9.116;2023-10-09T07:23:36;14.17;;;5.83;;
769;SDS011;368;48.698;9.116;2023-10-09T07:26:13;14.13;;;4.67;;
769;SDS011;368;48.698;9.116;2023-10-09T07:29:05;9.73;;;3.63;;
769;SDS011;368;48.698;9.116;2023-10-09T07:31:47;11.17;;;5.10;;
769;SDS011;368;48.698;9.116;2023-10-09T07:34:22;12.00;;;3.20;;
769;SDS011;368;48.698;9.116;2023-10-09T07:37:23;8.07;;;3.87;;
769;SDS011;368;48.698;9.116;2023-10-09T07:39:55;15.57;;;3.97;;
769;SDS011;368;48.698;9.116;2023-10-09T07:42:23;12.37;;;4.47;;
769;SDS011;368;48.698;9.116;2023-10-09T07:45:09;11.70;;;4.60;;
769;SDS011;368;48.698;9.116;2023-10-09T07:47:59;10.67;;;3.70;;
769;SDS011;368;48.698;9.116;2023-10-09T07:50:34;9.57;;;3.30;;
769;SDS011;368;48.698;9.116;2023-10-09T07:53:19;11.07;;;3.63;;
769;SDS011;368;48.698;9.116;2023-10-09T07:55:51;10.63;;;5.77;;
769;SDS011;368;48.698;9.116;2023-10-09T07:58:24;14.43;;;4.03;;
769;SDS011;368;48.698;9.116;2023-10-09T08:00:52;14.50;;;5.27;;
769;SDS011;368;48.698;9.116;2023-10-09T08:03:36;12.47;;;4.60;;
769;SDS011;368;48.698;9.116;2023-10-09T08:06:03;13.70;;;4.03;;
769;SDS011;368;48.698;9.116;2023-10-09T08:08:59;12.47;;;5.20;;
769;SDS011;368;48.698;9.116;2023-10-09T08:12:04;10.33;;;3.80;;
769;SDS011;368;48.698;9.116;2023-10-09T08:14:40;13.80;;;3.87;;
769;SDS011;368;48.698;9.116;2023-10-09T08:17:11;11.30;;;3.87;;
769;SDS011;368;48.698;9.116;2023-10-09T08:19:46;11.20;;;4.67;;
769;SDS011;368;48.698;9.116;2023-10-09T08:22:36;10.53;;;3.80;;
769;SDS011;368;48.698;9.116;2023-10-09T08:25:27;9.97;;;4.03;;
769;SDS011;368;48.698;9.116;2023-10-09T08:27:57;10.60;;;3.90;;
769;SDS011;368;48.698;9.116;2023-10-09T08:30:45;9.33;;;4.10;;
769;SDS011;368;48.698;9.116;2023-10-09T08:33:28;11.47;;;4.00;;
769;SDS011;368;48.698;9.116;2023-10-09T08:36:06;9.13;;;3.77;;
769;SDS011;368;48.698;9.116;2023-10-09T08:38:33;13.77;;;4.40;;
769;SDS011;368;48.698;9.116;2023-10-09T08:41:07;11.47;;;4.10;;
769;SDS011;368;48.698;9.116;2023-10-09T08:43:48;11.17;;;3.70;;
769;SDS011;368;48.698;9.116;2023-10-09T08:46:18;8.07;;;3.70;;
769;SDS011;368;48.698;9.116;2023-10-09T08:48:47;11.77;;;3.67;;
769;SDS011;368;48.698;9.116;2023-10-09T08:51:14;8.17;;;2.60;;
769;SDS011;368;48.698;9.116;2023-10-09T08:53:43;7.30;;;3.60;;
769;SDS011;368;48.698;9.116;2023-10-09T08:56:12;14.00;;;4.00;;
769;SDS011;368;48.698;9.116;2023-10-09T08:58:47;12.23;;;3.70;;
769;SDS011;368;48.698;9.116;2023-10-09T09:01:16;10.93;;;4.00;;
769;SDS011;368;48.698;9.116;2023-10-09T09:03:45;9.03;;;4.00;;
769;SDS011;368;48.698;9.116;2023-10-09T09:06:12;7.57;;;4.30;;
769;SDS011;368;48.698;9.116;2023-10-09T09:08:40;8.60;;;3.57;;
769;SDS011;368;48.698;9.116;2023-10-09T09:11:10;9.60;;;3.70;;
769;SDS011;368;48.698;9.116;2023-10-09T09:13:42;13.60;;;4.50;;
769;SDS011;368;48.698;9.116;2023-10-09T09:16:16;8.97;;;3.43;;
769;SDS011;368;48.698;9.116;2023-10-09T09:21:43;10.17;;;3.87;;
769;SDS011;368;48.698;9.116;2023-10-09T09:24:14;10.77;;;3.20;;
769;SDS011;368;48.698;9.116;2023-10-09T09:26:53;14.30;;;3.47;;
769;SDS011;368;48.698;9.116;2023-10-09T09:29:37;12.93;;;3.80;;
769;SDS011;368;48.698;9.116;2023-10-09T09:32:06;9.70;;;3.70;;
769;SDS011;368;48.698;9.116;2023-10-09T09:34:46;9.40;;;3.43;;
769;SDS011;368;48.698;9.116;2023-10-09T09:37:18;11.50;;;3.83;;
769;SDS011;368;48.698;9.116;2023-10-09T09:39:46;8.83;;;3.70;;
769;SDS011;368;48.698;9.116;2023-10-09T09:42:18;9.90;;;3.77;;
769;SDS011;368;48.698;9.116;2023-10-09T09:44:50;9.20;;;3.97;;
769;SDS011;368;48.698;9.116;2023-10-09T09:47:17;8.57;;;3.87;;
769;SDS011;368;48.698;9.116;2023-10-09T09:49:52;12.00;;;4.03;;
769;SDS011;368;48.698;9.116;2023-10-09T09:52:24;16.40;;;4.70;;
769;SDS011;368;48.698;9.116;2023-10-09T09:54:52;13.83;;;3.83;;
769;SDS011;368;48.698;9.116;2023-10-09T09:57:22;10.57;;;4.20;;
769;SDS011;368;48.698;9.116;2023-10-09T09:59:55;11.90;;;3.97;;
769;SDS011;368;48.698;9.116;2023-10-09T10:02:27;11.00;;;3.87;;
769;SDS011;368;48.698;9.116;2023-10-09T10:04:58;8.37;;;3.67;;
769;SDS011;368;48.698;9.116;2023-10-09T10:07:29;15.70;;;4.00;;
769;SDS011;368;48.698;9.116;2023-10-09T10:10:07;11.03;;;3.57;;
769;SDS011;368;48.698;9.116;2023-10-09T10:13:03;8.00;;;3.93;;
769;SDS011;368;48.698;9.116;2023-10-09T10:18:54;14.30;;;4.50;;
769;SDS011;368;48.698;9.116;2023-10-09T10:21:46;10.90;;;4.10;;
769;SDS011;368;48.698;9.116;2023-10-09T10:27:22;15.20;;;4.00;;
769;SDS011;368;48.698;9.116;2023-10-09T10:33:02;9.30;;;4.37;;
769;SDS011;368;48.698;9.116;2023-10-09T10:35:39;12.53;;;4.70;;
769;SDS011;368;48.698;9.116;2023-10-09T10:38:24;11.53;;;5.30;;
769;SDS011;368;48.698;9.116;2023-10-09T10:41:07;12.50;;;4.90;;
769;SDS011;368;48.698;9.116;2023-10-09T10:43:38;12.17;;;4.47;;
769;SDS011;368;48.698;9.116;2023-10-09T10:46:27;14.83;;;4.30;;
769;SDS011;368;48.698;9.116;2023-10-09T10:49:03;12.67;;;4.00;;
769;SDS011;368;48.698;9.116;2023-10-09T10:51:41;16.80;;;5.63;;
769;SDS011;368;48.698;9.116;2023-10-09T10:54:20;15.90;;;4.60;;
769;SDS011;368;48.698;9.116;2023-10-09T10:57:13;15.10;;;5.00;;
769;SDS011;368;48.698;9.116;2023-10-09T10:59:54;17.67;;;5.17;;
769;SDS011;368;48.698;9.116;2023-10-09T11:02:38;8.73;;;3.73;;
769;SDS011;368;48.698;9.116;2023-10-09T11:05:06;12.53;;;5.10;;
769;SDS011;368;48.698;9.116;2023-10-09T11:07:47;14.70;;;4.50;;
769;SDS011;368;48.698;9.116;2023-10-09T11:10:21;11.57;;;4.30;;
769;SDS011;368;48.698;9.116;2023-10-09T11:12:53;13.60;;;5.50;;
769;SDS011;368;48.698;9.116;2023-10-09T11:15:38;12.53;;;4.37;;
769;SDS011;368;48.698;9.116;2023-10-09T11:18:13;14.73;;;4.27;;
769;SDS011;368;48.698;9.116;2023-10-09T11:20:45;17.43;;;4.80;;
769;SDS011;368;48.698;9.116;2023-10-09T11:23:45;18.20;;;5.07;;
769;SDS011;368;48.698;9.116;2023-10-09T11:26:23;15.13;;;4.20;;
769;SDS011;368;48.698;9.116;2023-10-09T11:29:05;15.73;;;4.70;;
769;SDS011;368;48.698;9.116;2023-10-09T11:31:39;13.53;;;4.87;;
769;SDS011;368;48.698;9.116;2023-10-09T11:34:18;13.13;;;4.63;;
769;SDS011;368;48.698;9.116;2023-10-09T11:36:54;13.00;;;4.37;;
769;SDS011;368;48.698;9.116;2023-10-09T11:39:24;15.27;;;4.80;;
769;SDS011;368;48.698;9.116;2023-10-09T11:42:03;14.13;;;4.40;;
769;SDS011;368;48.698;9.116;2023-10-09T11:44:35;14.17;;;5.43;;
769;SDS011;368;48.698;9.116;2023-10-09T11:47:04;13.40;;;4.20;;
769;SDS011;368;48.698;9.116;2023-10-09T11:49:51;17.23;;;4.40;;
769;SDS011;368;48.698;9.116;2023-10-09T11:52:30;11.80;;;4.57;;
769;SDS011;368;48.698;9.116;2023-10-09T11:55:04;20.53;;;6.50;;
769;SDS011;368;48.698;9.116;2023-10-09T11:57:33;12.30;;;4.80;;
769;SDS011;368;48.698;9.116;2023-10-09T12:00:01;13.70;;;4.57;;
769;SDS011;368;48.698;9.116;2023-10-09T12:02:49;15.27;;;4.90;;
769;SDS011;368;48.698;9.116;2023-10-09T12:05:18;14.80;;;4.90;;
769;SDS011;368;48.698;9.116;2023-10-09T12:07:45;17.30;;;7.50;;
769;SDS011;368;48.698;9.116;2023-10-09T12:10:16;17.93;;;4.40;;
769;SDS011;368;48.698;9.116;2023-10-09T12:12:49;19.57;;;4.83;;
769;SDS011;368;48.698;9.116;2023-10-09T12:15:16;12.33;;;4.97;;
769;SDS011;368;48.698;9.116;2023-10-09T12:17:44;12.50;;;4.20;;
769;SDS011;368;48.698;9.116;2023-10-09T12:20:12;12.33;;;4.30;;
769;SDS011;368;48.698;9.116;2023-10-09T12:22:56;13.20;;;4.90;;
769;SDS011;368;48.698;9.116;2023-10-09T12:25:24;15.90;;;5.40;;
769;SDS011;368;48.698;9.116;2023-10-09T12:27:51;12.37;;;5.23;;
769;SDS011;368;48.698;9.116;2023-10-09T12:30:21;13.37;;;5.20;;
769;SDS011;368;48.698;9.116;2023-10-09T12:32:52;12.43;;;4.83;;
769;SDS011;368;48.698;9.116;2023-10-09T12:35:19;10.70;;;4.43;;
769;SDS011;368;48.698;9.116;2023-10-09T12:37:46;11.47;;;4.47;;
769;SDS011;368;48.698;9.116;2023-10-09T12:40:15;7.33;;;4.20;;
769;SDS011;368;48.698;9.116;2023-10-09T12:42:49;8.23;;;4.57;;
769;SDS011;368;48.698;9.116;2023-10-09T12:45:17;9.10;;;3.90;;
769;SDS011;368;48.698;9.116;2023-10-09T12:47:50;9.13;;;4.53;;
769;SDS011;368;48.698;9.116;2023-10-09T12:50:18;13.80;;;4.67;;
769;SDS011;368;48.698;9.116;2023-10-09T12:52:52;13.33;;;4.50;;
769;SDS011;368;48.698;9.116;2023-10-09T12:55:21;13.90;;;5.00;;
769;SDS011;368;48.698;9.116;2023-10-09T12:57:56;10.43;;;4.63;;
769;SDS011;368;48.698;9.116;2023-10-09T13:00:29;16.50;;;5.30;;
769;SDS011;368;48.698;9.116;2023-10-09T13:02:57;14.70;;;5.57;;
769;SDS011;368;48.698;9.116;2023-10-09T13:05:26;15.70;;;5.80;;
769;SDS011;368;48.698;9.116;2023-10-09T13:07:53;15.70;;;6.30;;
769;SDS011;368;48.698;9.116;2023-10-09T13:10:23;18.17;;;4.70;;
769;SDS011;368;48.698;9.116;2023-10-09T13:12:50;18.80;;;4.60;;
769;SDS011;368;48.698;9.116;2023-10-09T13:15:21;11.80;;;4.53;;
769;SDS011;368;48.698;9.116;2023-10-09T13:17:48;22.07;;;5.37;;
769;SDS011;368;48.698;9.116;2023-10-09T13:20:18;15.17;;;4.80;;
769;SDS011;368;48.698;9.116;2023-10-09T13:22:45;12.33;;;4.50;;
769;SDS011;368;48.698;9.116;2023-10-09T13:25:13;11.97;;;4.43;;
769;SDS011;368;48.698;9.116;2023-10-09T13:27:43;13.03;;;4.97;;
769;SDS011;368;48.698;9.116;2023-10-09T13:30:16;11.70;;;4.30;;
769;SDS011;368;48.698;9.116;2023-10-09T13:32:48;13.13;;;5.20;;
769;SDS011;368;48.698;9.116;2023-10-09T13:35:15;11.00;;;4.10;;
769;SDS011;368;48.698;9.116;2023-10-09T13:37:43;12.70;;;4.50;;
769;SDS011;368;48.698;9.116;2023-10-09T13:40:19;11.40;;;4.70;;
769;SDS011;368;48.698;9.116;2023-10-09T13:42:53;9.53;;;4.33;;
769;SDS011;368;48.698;9.116;2023-10-09T13:45:24;8.43;;;4.03;;
769;SDS011;368;48.698;9.116;2023-10-09T13:47:53;11.80;;;4.87;;
769;SDS011;368;48.698;9.116;2023-10-09T13:50:20;11.13;;;5.57;;
769;SDS011;368;48.698;9.116;2023-10-09T13:52:53;11.00;;;5.03;;
769;SDS011;368;48.698;9.116;2023-10-09T13:55:21;9.20;;;5.07;;
769;SDS011;368;48.698;9.116;2023-10-09T13:57:49;10.27;;;5.57;;
769;SDS011;368;48.698;9.116;2023-10-09T14:00:17;9.90;;;4.57;;
769;SDS011;368;48.698;9.116;2023-10-09T14:02:58;11.00;;;5.00;;
769;SDS011;368;48.698;9.116;2023-10-09T14:05:26;10.23;;;5.23;;
769;SDS011;368;48.698;9.116;2023-10-09T14:07:53;9.50;;;5.23;;
769;SDS011;368;48.698;9.116;2023-10-09T14:10:25;10.40;;;4.87;;
769;SDS011;368;48.698;9.116;2023-10-09T14:12:55;9.90;;;4.83;;
769;SDS011;368;48.698;9.116;2023-10-09T14:15:23;13.67;;;5.27;;
769;SDS011;368;48.698;9.116;2023-10-09T14:17:50;7.87;;;4.20;;
769;SDS011;368;48.698;9.116;2023-10-09T14:20:21;12.40;;;4.47;;
769;SDS011;368;48.698;9.116;2023-10-09T14:22:56;12.27;;;5.23;;
769;SDS011;368;48.698;9.116;2023-10-09T14:25:31;9.40;;;5.30;;
769;SDS011;368;48.698;9.116;2023-10-09T14:27:58;9.80;;;5.03;;
769;SDS011;368;48.698;9.116;2023-10-09T14:30:26;9.83;;;4.87;;
769;SDS011;368;48.698;9.116;2023-10-09T14:32:58;11.40;;;4.50;;
769;SDS011;368;48.698;9.116;2023-10-09T14:35:27;15.63;;;5.20;;
769;SDS011;368;48.698;9.116;2023-10-09T14:37:55;8.83;;;4.77;;
769;SDS011;368;48.698;9.116;2023-10-09T14:40:22;6.77;;;4.93;;
769;SDS011;368;48.698;9.116;2023-10-09T14:42:56;7.70;;;4.33;;
769;SDS011;368;48.698;9.116;2023-10-09T14:45:24;6.97;;;4.50;;
769;SDS011;368;48.698;9.116;2023-10-09T14:47:52;8.63;;;5.07;;
769;SDS011;368;48.698;9.116;2023-10-09T14:50:20;8.73;;;5.10;;
769;SDS011;368;48.698;9.116;2023-10-09T14:52:48;9.53;;;4.77;;
769;SDS011;368;48.698;9.116;2023-10-09T14:55:15;12.03;;;4.77;;
769;SDS011;368;48.698;9.116;2023-10-09T14:57:46;12.37;;;4.53;;
769;SDS011;368;48.698;9.116;2023-10-09T15:00:15;7.00;;;4.27;;
769;SDS011;368;48.698;9.116;2023-10-09T15:02:48;11.93;;;5.77;;
769;SDS011;368;48.698;9.116;2023-10-09T15:05:17;7.77;;;4.50;;
769;SDS011;368;48.698;9.116;2023-10-09T15:07:44;9.73;;;4.27;;
769;SDS011;368;48.698;9.116;2023-10-09T15:10:11;11.07;;;5.20;;
769;SDS011;368;48.698;9.116;2023-10-09T15:12:40;10.30;;;4.97;;
769;SDS011;368;48.698;9.116;2023-10-09T15:15:08;9.00;;;4.40;;
769;SDS011;368;48.698;9.116;2023-10-09T15:17:38;10.20;;;5.00;;
769;SDS011;368;48.698;9.116;2023-10-09T15:20:09;7.67;;;4.53;;
769;SDS011;368;48.698;9.116;2023-10-09T15:22:40;9.60;;;4.80;;
769;SDS011;368;48.698;9.116;2023-10-09T15:25:07;14.90;;;5.60;;
769;SDS011;368;48.698;9.116;2023-10-09T15:27:39;8.27;;;4.70;;
769;SDS011;368;48.698;9.116;2023-10-09T15:30:06;9.57;;;4.40;;
769;SDS011;368;48.698;9.116;2023-10-09T15:32:38;12.00;;;5.10;;
769;SDS011;368;48.698;9.116;2023-10-09T15:35:06;11.50;;;4.70;;
769;SDS011;368;48.698;9.116;2023-10-09T15:37:35;11.00;;;5.40;;
769;SDS011;368;48.698;9.116;2023-10-09T15:40:04;10.80;;;6.30;;
769;SDS011;368;48.698;9.116;2023-10-09T15:42:31;12.40;;;4.53;;
769;SDS011;368;48.698;9.116;2023-10-09T15:44:58;10.03;;;5.00;;
769;SDS011;368;48.698;9.116;2023-10-09T15:47:25;11.13;;;4.77;;
769;SDS011;368;48.698;9.116;2023-10-09T15:49:52;11.07;;;5.83;;
769;SDS011;368;48.698;9.116;2023-10-09T15:52:19;11.20;;;4.70;;
769;SDS011;368;48.698;9.116;2023-10-09T15:54:51;7.70;;;4.67;;
769;SDS011;368;48.698;9.116;2023-10-09T15:57:20;15.40;;;10.20;;
769;SDS011;368;48.698;9.116;2023-10-09T15:59:47;32.20;;;27.60;;
769;SDS011;368;48.698;9.116;2023-10-09T16:02:15;35.40;;;31.93;;
769;SDS011;368;48.698;9.116;2023-10-09T16:04:42;23.47;;;21.27;;
769;SDS011;368;48.698;9.116;2023-10-09T16:07:09;15.90;;;14.20;;
769;SDS011;368;48.698;9.116;2023-10-09T16:09:37;21.67;;;14.97;;
769;SDS011;368;48.698;9.116;2023-10-09T16:12:04;16.03;;;13.00;;
769;SDS011;368;48.698;9.116;2023-10-09T16:14:32;13.30;;;9.30;;
769;SDS011;368;48.698;9.116;2023-10-09T16:17:00;12.23;;;8.63;;
769;SDS011;368;48.698;9.116;2023-10-09T16:19:27;11.03;;;6.53;;
769;SDS011;368;48.698;9.116;2023-10-09T16:21:58;11.60;;;7.07;;
769;SDS011;368;48.698;9.116;2023-10-09T16:24:28;9.33;;;5.80;;
769;SDS011;368;48.698;9.116;2023-10-09T16:26:57;10.40;;;5.03;;
769;SDS011;368;48.698;9.116;2023-10-09T16:29:24;11.83;;;5.47;;